Laws, California
Current Conditions -  °F | °C
As of 8:56 PM on Friday 24 Oct 2014 (Local Time) from KBIH Reporting Station
Clear Clear  
Wind Chill: 71°   Ceiling: Unl
Heat Index: 71°   Visibility: 10mi
Dew Point: 22°   Wind: 21mph
Humidity: 16%   Direction: 170°S
Pressure: 30"   Gusts: 29mph
Location:  37.4772°N, 118.401°W
Report Text: KBIH 250356Z AUTO 17018G25KT 10SM CLR 22/M06 A3000 RMK AO2 PK WND 18026/0301 SLP123 T02171056
Loading
Personal Weather Stations






























Interactive Weather Map
Tropical Storm Tracking
New forecast layout! Learn more

10-Day Weather Forecast

Advertisements
Track Severe Weather on mobile